createdAt,value
2022-10-11T00:01:23.136Z,71.67
2022-10-11T00:04:26.450Z,71.96
2022-10-11T00:07:29.524Z,71.66
2022-10-11T00:10:35.383Z,72.46
2022-10-11T00:13:38.552Z,72.07
2022-10-11T00:16:44.498Z,72.15
2022-10-11T00:19:48.106Z,72.21
2022-10-11T00:22:50.614Z,72.23
2022-10-11T00:26:02.296Z,73.33
2022-10-11T00:29:05.533Z,73.31
2022-10-11T00:32:09.032Z,73.27
2022-10-11T00:35:11.654Z,74.08
2022-10-11T00:38:14.960Z,73.80
2022-10-11T00:41:18.140Z,74.04
2022-10-11T00:44:27.170Z,74.51
2022-10-11T00:47:30.023Z,74.42
2022-10-11T00:50:36.490Z,75.17
2022-10-11T00:53:39.194Z,75.49
2022-10-11T00:56:45.999Z,76.02
2022-10-11T00:59:52.562Z,76.10
2022-10-11T01:02:55.225Z,76.48
2022-10-11T01:05:57.904Z,76.74
2022-10-11T01:09:00.516Z,76.75
2022-10-11T01:12:06.864Z,76.16
2022-10-11T01:15:18.144Z,76.93
2022-10-11T01:18:47.559Z,76.97
2022-10-11T01:22:05.820Z,76.84
2022-10-11T01:25:23.273Z,77.57
2022-10-11T01:28:42.556Z,77.48
2022-10-11T01:31:56.613Z,78.02
2022-10-11T01:35:24.995Z,78.28
2022-10-11T01:38:34.975Z,78.73
2022-10-11T01:41:41.259Z,78.60
2022-10-11T01:44:47.515Z,78.34
2022-10-11T01:48:08.105Z,78.71
2022-10-11T01:51:10.746Z,78.47
2022-10-11T01:55:03.878Z,78.76
2022-10-11T01:58:33.986Z,79.12
2022-10-11T02:01:58.879Z,78.87
2022-10-11T02:05:20.106Z,79.11
2022-10-11T02:08:47.194Z,79.20
2022-10-11T02:11:49.831Z,79.60
2022-10-11T02:14:56.847Z,79.05
2022-10-11T02:18:02.466Z,78.97
2022-10-11T02:21:08.906Z,78.70
2022-10-11T02:24:23.393Z,78.68
2022-10-11T02:27:30.643Z,78.73
2022-10-11T02:30:35.118Z,79.30
2022-10-11T02:33:50.368Z,78.84
2022-10-11T02:37:08.938Z,79.08
2022-10-11T02:40:27.685Z,79.10
2022-10-11T02:43:36.775Z,79.56
2022-10-11T02:46:41.385Z,79.51
2022-10-11T02:49:45.980Z,79.88
2022-10-11T02:52:48.546Z,79.92
2022-10-11T02:55:53.251Z,80.13
2022-10-11T02:58:55.977Z,80.90
2022-10-11T03:01:58.425Z,80.36
2022-10-11T03:05:01.456Z,79.96
2022-10-11T03:08:03.982Z,80.01
2022-10-11T03:11:06.931Z,80.35
2022-10-11T03:14:09.523Z,80.03
2022-10-11T03:17:35.008Z,80.08
2022-10-11T03:20:35.001Z,80.32
2022-10-11T03:23:37.564Z,79.86
2022-10-11T03:26:40.067Z,80.07
2022-10-11T03:29:42.638Z,79.82
2022-10-11T03:32:45.581Z,79.77
2022-10-11T03:35:49.037Z,80.40
2022-10-11T03:38:51.456Z,79.52
2022-10-11T03:41:54.834Z,79.95
2022-10-11T03:44:59.599Z,79.41
2022-10-11T03:48:02.574Z,78.79
2022-10-11T03:51:05.255Z,78.40
2022-10-11T03:54:07.897Z,78.28
2022-10-11T03:57:11.303Z,78.44
2022-10-11T04:00:15.063Z,78.81
2022-10-11T04:03:18.356Z,78.23
2022-10-11T04:06:20.924Z,77.95
2022-10-11T04:09:24.413Z,77.33
2022-10-11T04:12:26.993Z,76.97
2022-10-11T04:15:29.618Z,77.88
2022-10-11T04:18:32.218Z,77.45
2022-10-11T04:21:35.384Z,76.48
2022-10-11T04:24:37.951Z,76.00
2022-10-11T04:27:40.711Z,76.25
2022-10-11T04:30:44.088Z,76.79
2022-10-11T04:33:46.750Z,76.52
2022-10-11T04:36:50.133Z,76.99
2022-10-11T04:39:52.884Z,76.46
2022-10-11T04:42:55.470Z,76.94
2022-10-11T04:45:58.551Z,76.59
2022-10-11T04:49:01.059Z,76.12
2022-10-11T04:52:06.058Z,75.85
2022-10-11T04:55:10.644Z,75.85
2022-10-11T04:58:13.205Z,75.35
2022-10-11T05:01:16.116Z,75.50
2022-10-11T05:04:19.538Z,75.04
2022-10-11T05:07:22.869Z,75.17
2022-10-11T05:10:25.924Z,74.92
2022-10-11T05:13:29.790Z,75.02
2022-10-11T05:16:32.295Z,74.58
2022-10-11T05:19:35.470Z,74.49
2022-10-11T05:22:38.029Z,74.61
2022-10-11T05:25:40.635Z,74.66
2022-10-11T05:28:43.314Z,73.72
2022-10-11T05:31:46.103Z,73.92
2022-10-11T05:34:48.747Z,73.52
2022-10-11T05:37:51.451Z,73.67
2022-10-11T05:40:54.736Z,72.93
2022-10-11T05:43:58.119Z,73.05
2022-10-11T05:47:17.107Z,73.20
2022-10-11T05:50:25.999Z,72.94
2022-10-11T05:53:29.894Z,72.59
2022-10-11T05:56:33.610Z,72.01
2022-10-11T05:59:36.967Z,72.87
2022-10-11T06:02:40.308Z,71.37
2022-10-11T06:05:43.641Z,71.36
2022-10-11T06:08:47.544Z,72.36
2022-10-11T06:11:50.710Z,71.54
2022-10-11T06:14:53.552Z,71.72
2022-10-11T06:17:56.427Z,71.88
2022-10-11T06:20:59.905Z,71.20
2022-10-11T06:24:02.767Z,71.58
2022-10-11T06:27:05.605Z,72.00
2022-10-11T06:30:09.853Z,72.02
2022-10-11T06:33:12.645Z,72.32
2022-10-11T06:36:17.340Z,71.55
2022-10-11T06:39:21.244Z,71.93
2022-10-11T06:42:25.499Z,71.78
2022-10-11T06:45:29.334Z,72.13
2022-10-11T06:48:48.136Z,72.02
2022-10-11T06:51:56.827Z,72.10
2022-10-11T06:54:59.962Z,71.97
2022-10-11T06:58:06.167Z,71.35
2022-10-11T07:01:12.357Z,72.44
2022-10-11T07:04:15.277Z,71.95
2022-10-11T07:07:18.457Z,72.15
2022-10-11T07:10:21.802Z,72.20
2022-10-11T07:13:25.850Z,72.04
2022-10-11T07:16:29.113Z,71.52
2022-10-11T07:19:33.412Z,72.30
2022-10-11T07:22:36.440Z,71.20
2022-10-11T07:25:39.252Z,70.30
2022-10-11T07:28:45.866Z,71.01
2022-10-11T07:31:53.002Z,70.91
2022-10-11T07:34:57.657Z,69.26
2022-10-11T07:38:00.417Z,69.14
2022-10-11T07:41:09.939Z,68.71
2022-10-11T07:45:14.096Z,66.45
2022-10-11T07:49:04.432Z,64.55
2022-10-11T07:52:08.687Z,63.99
2022-10-11T07:55:11.619Z,63.93
2022-10-11T07:58:14.459Z,63.09
2022-10-11T08:01:18.946Z,62.84
2022-10-11T08:04:22.086Z,62.36
2022-10-11T08:07:25.863Z,60.98
2022-10-11T08:10:30.294Z,60.80
2022-10-11T08:13:34.850Z,60.80
2022-10-11T08:16:39.614Z,62.00
2022-10-11T08:19:43.532Z,61.62
2022-10-11T08:22:46.336Z,61.45
2022-10-11T08:25:49.948Z,61.48
2022-10-11T08:28:53.677Z,61.25
2022-10-11T08:32:07.917Z,61.48
2022-10-11T08:35:39.646Z,61.71
2022-10-11T08:50:15.576Z,62.29
2022-10-11T08:53:52.244Z,61.96
2022-10-11T08:56:55.143Z,61.61
2022-10-11T09:00:01.191Z,62.53
2022-10-11T09:03:29.018Z,61.86
2022-10-11T09:06:49.717Z,60.75
2022-10-11T09:10:17.020Z,61.23
2022-10-11T09:13:41.569Z,59.80
2022-10-11T09:16:47.408Z,59.80
2022-10-11T09:20:02.882Z,59.49
2022-10-11T09:23:26.610Z,58.32
2022-10-11T09:27:05.135Z,58.55
2022-10-11T09:40:04.546Z,57.58
2022-10-11T09:49:22.232Z,57.56
2022-10-11T09:53:50.902Z,57.13
2022-10-11T09:57:22.478Z,56.76
2022-10-11T10:00:30.457Z,56.22
2022-10-11T10:03:39.934Z,56.25
2022-10-11T10:06:43.711Z,55.47
2022-10-11T10:09:47.027Z,54.97
2022-10-11T10:12:55.292Z,54.84
2022-10-11T10:15:59.340Z,54.04
2022-10-11T10:19:17.370Z,54.67
2022-10-11T10:22:23.351Z,53.94
2022-10-11T10:25:40.868Z,53.85
2022-10-11T10:29:11.033Z,53.99
2022-10-11T10:32:28.040Z,53.14
2022-10-11T10:35:54.746Z,54.11
2022-10-11T10:39:16.914Z,53.51
2022-10-11T10:42:21.455Z,53.30
2022-10-11T10:45:33.789Z,53.03
2022-10-11T10:49:28.392Z,53.54
2022-10-11T10:52:50.359Z,53.86
2022-10-11T10:56:16.250Z,53.96
2022-10-11T10:59:36.938Z,54.33
2022-10-11T11:02:54.714Z,54.05
2022-10-11T11:06:07.611Z,53.85
2022-10-11T11:09:17.220Z,53.32
2022-10-11T11:12:30.324Z,53.55
2022-10-11T11:15:48.765Z,53.89
2022-10-11T11:19:05.519Z,53.80
2022-10-11T11:22:23.409Z,54.29
2022-10-11T11:25:41.400Z,55.19
2022-10-11T11:29:19.544Z,55.35
2022-10-11T11:32:41.202Z,54.76
2022-10-11T11:35:53.670Z,54.21
2022-10-11T11:39:02.681Z,53.80
2022-10-11T11:42:31.164Z,53.55
2022-10-11T11:45:46.361Z,52.89
2022-10-11T11:48:57.032Z,52.56
2022-10-11T11:52:00.855Z,52.33
2022-10-11T11:55:18.657Z,51.46
2022-10-11T12:00:14.720Z,51.64
2022-10-11T12:03:59.066Z,51.54
2022-10-11T12:07:17.028Z,51.39
2022-10-11T12:10:34.940Z,51.62
2022-10-11T12:13:40.873Z,51.00
2022-10-11T12:17:06.974Z,50.87
2022-10-11T12:20:29.518Z,51.42
2022-10-11T12:23:32.350Z,51.89
2022-10-11T12:26:43.068Z,49.52
2022-10-11T12:29:48.709Z,48.04
2022-10-11T12:32:52.759Z,47.10
2022-10-11T12:35:55.420Z,45.63
2022-10-11T12:39:20.554Z,44.31
2022-10-11T12:42:35.991Z,44.23
2022-10-11T12:45:39.637Z,45.52
2022-10-11T12:49:03.939Z,46.78
2022-10-11T12:58:27.801Z,50.80
2022-10-11T13:01:37.329Z,51.71
2022-10-11T13:04:40.435Z,51.59
2022-10-11T13:07:43.468Z,51.94
2022-10-11T13:10:48.936Z,52.63
2022-10-11T13:13:55.649Z,52.51
2022-10-11T13:17:15.206Z,52.93
2022-10-11T13:20:23.938Z,52.48
2022-10-11T13:23:29.447Z,52.92
2022-10-11T13:26:32.653Z,52.43
2022-10-11T13:29:39.491Z,52.04
2022-10-11T13:32:43.198Z,52.42
2022-10-11T13:35:45.935Z,52.38
2022-10-11T13:39:00.388Z,52.42
2022-10-11T13:42:10.933Z,52.46
2022-10-11T13:45:16.255Z,51.26
2022-10-11T13:48:18.928Z,51.90
2022-10-11T13:51:34.577Z,51.50
2022-10-11T13:55:05.869Z,51.69
2022-10-11T13:58:36.393Z,51.70
2022-10-11T14:01:43.709Z,52.08
2022-10-11T14:04:48.634Z,51.65
2022-10-11T14:07:52.342Z,52.12
2022-10-11T14:10:57.853Z,51.85
2022-10-11T14:14:34.585Z,51.84
2022-10-11T14:17:45.588Z,52.10
2022-10-11T14:20:48.136Z,52.84
2022-10-11T14:24:10.600Z,52.40
2022-10-11T14:27:23.638Z,51.44
2022-10-11T14:30:27.892Z,51.08
2022-10-11T14:33:30.698Z,51.31
2022-10-11T14:36:33.311Z,51.46
2022-10-11T14:39:36.955Z,51.79
2022-10-11T14:42:39.494Z,52.04
2022-10-11T14:45:42.627Z,52.66
2022-10-11T14:48:54.811Z,53.12
2022-10-11T14:51:59.737Z,53.42
2022-10-11T14:55:02.384Z,53.51
2022-10-11T14:58:06.873Z,53.22
2022-10-11T15:01:14.944Z,53.47
2022-10-11T15:04:18.946Z,53.78
2022-10-11T15:07:22.135Z,53.07
2022-10-11T15:10:28.626Z,52.41
2022-10-11T15:13:31.230Z,53.68
2022-10-11T15:16:34.843Z,53.79
2022-10-11T15:19:37.479Z,53.93
2022-10-11T15:22:40.618Z,54.29
2022-10-11T15:25:44.280Z,54.44
2022-10-11T15:28:48.381Z,54.06
2022-10-11T15:31:51.619Z,54.32
2022-10-11T15:34:54.169Z,54.24
2022-10-11T15:37:59.489Z,53.74
2022-10-11T15:41:03.690Z,54.22
2022-10-11T15:44:07.117Z,55.46
2022-10-11T15:47:10.812Z,56.42
2022-10-11T15:50:44.088Z,56.79
2022-10-11T15:53:47.552Z,57.15
2022-10-11T15:56:50.666Z,57.44
2022-10-11T15:59:53.196Z,57.49
2022-10-11T16:02:56.670Z,58.15
2022-10-11T16:06:04.666Z,58.22
2022-10-11T16:09:07.843Z,57.50
2022-10-11T16:12:10.390Z,58.34
2022-10-11T16:15:12.959Z,59.81
2022-10-11T16:18:18.032Z,60.06
2022-10-11T16:21:23.581Z,60.40
2022-10-11T16:24:30.280Z,60.65
2022-10-11T16:27:33.420Z,62.07
2022-10-11T16:30:45.098Z,62.39
2022-10-11T16:33:48.854Z,63.39
2022-10-11T16:36:51.397Z,64.03
2022-10-11T16:39:55.033Z,64.56
2022-10-11T16:42:57.945Z,64.37
2022-10-11T16:46:00.458Z,64.76
2022-10-11T16:49:03.980Z,65.62
2022-10-11T16:52:10.381Z,66.32
2022-10-11T16:55:13.787Z,66.71
2022-10-11T16:58:17.257Z,67.52
2022-10-11T17:01:22.243Z,67.08
2022-10-11T17:04:25.734Z,66.79
2022-10-11T17:07:29.117Z,67.67
2022-10-11T17:10:39.600Z,67.05
2022-10-11T17:13:42.211Z,67.09
2022-10-11T17:16:45.617Z,67.16
2022-10-11T17:19:48.459Z,67.03
2022-10-11T17:22:51.771Z,67.34
2022-10-11T17:25:54.353Z,66.63
2022-10-11T17:28:59.730Z,67.60
2022-10-11T17:32:02.613Z,67.14
2022-10-11T17:35:05.568Z,66.81
2022-10-11T17:38:08.182Z,66.73
2022-10-11T17:41:11.944Z,66.91
2022-10-11T17:44:17.481Z,66.85
2022-10-11T17:47:20.174Z,66.23
2022-10-11T17:50:24.267Z,66.42
2022-10-11T17:53:26.775Z,66.39
2022-10-11T17:56:36.583Z,66.21
2022-10-11T17:59:40.837Z,66.86
2022-10-11T18:02:43.412Z,66.37
2022-10-11T18:05:45.917Z,65.94
2022-10-11T18:08:49.439Z,66.39
2022-10-11T18:11:52.994Z,65.05
2022-10-11T18:14:56.340Z,65.66
2022-10-11T18:17:59.805Z,65.84
2022-10-11T18:21:02.410Z,66.02
2022-10-11T18:24:15.120Z,66.05
2022-10-11T18:27:17.644Z,65.59
2022-10-11T18:30:20.074Z,65.26
2022-10-11T18:33:23.905Z,66.18
2022-10-11T18:36:30.127Z,65.70
2022-10-11T18:39:32.612Z,65.72
2022-10-11T18:42:36.162Z,66.54
2022-10-11T18:45:38.658Z,66.84
2022-10-11T18:48:42.680Z,67.18
2022-10-11T18:51:46.569Z,66.74
2022-10-11T18:54:50.249Z,67.78
2022-10-11T18:57:53.895Z,67.14
2022-10-11T19:01:05.539Z,67.71
2022-10-11T19:04:10.256Z,67.99
2022-10-11T19:07:13.440Z,67.60
2022-10-11T19:10:17.039Z,68.16
2022-10-11T19:13:19.487Z,69.11
2022-10-11T19:16:22.947Z,69.53
2022-10-11T19:19:28.336Z,70.20
2022-10-11T19:22:31.621Z,70.63
2022-10-11T19:25:39.470Z,70.29
2022-10-11T19:28:42.526Z,70.14
2022-10-11T19:31:52.025Z,69.31
2022-10-11T19:34:54.559Z,69.46
2022-10-11T19:37:57.960Z,69.82
2022-10-11T19:41:02.361Z,69.52
2022-10-11T19:44:05.884Z,69.62
2022-10-11T19:47:09.063Z,69.64
2022-10-11T19:50:14.106Z,69.90
2022-10-11T19:53:17.421Z,70.20
2022-10-11T19:56:20.497Z,69.93
2022-10-11T19:59:23.096Z,70.39
2022-10-11T20:02:25.552Z,71.13
2022-10-11T20:05:29.015Z,71.65
2022-10-11T20:08:32.319Z,71.81
2022-10-11T20:11:35.821Z,72.75
2022-10-11T20:14:38.274Z,73.15
2022-10-11T20:17:50.373Z,72.95
2022-10-11T20:20:54.729Z,73.16
2022-10-11T20:24:03.373Z,73.10
2022-10-11T20:27:06.940Z,73.61
2022-10-11T20:30:10.569Z,73.66
2022-10-11T20:33:13.041Z,74.02
2022-10-11T20:36:21.592Z,73.48
2022-10-11T20:39:24.732Z,73.88
2022-10-11T20:42:29.981Z,74.27
2022-10-11T20:45:32.579Z,74.70
2022-10-11T20:48:37.349Z,75.20
2022-10-11T20:51:41.917Z,75.71
2022-10-11T20:54:44.437Z,75.58
2022-10-11T20:57:46.858Z,75.57
2022-10-11T21:00:50.459Z,75.78
2022-10-11T21:03:53.753Z,75.67
2022-10-11T21:06:56.256Z,76.08
2022-10-11T21:09:58.666Z,75.87
2022-10-11T21:13:01.257Z,76.60
2022-10-11T21:16:11.370Z,77.44
2022-10-11T21:19:15.278Z,76.89
2022-10-11T21:22:18.669Z,76.90
2022-10-11T21:25:21.203Z,77.67
2022-10-11T21:28:23.694Z,78.46
2022-10-11T21:31:32.679Z,77.99
2022-10-11T21:34:37.144Z,78.00
2022-10-11T21:37:39.612Z,78.53
2022-10-11T21:40:42.064Z,78.26
2022-10-11T21:43:45.391Z,79.38
2022-10-11T21:47:05.957Z,79.43
2022-10-11T21:50:10.727Z,79.39
2022-10-11T21:53:13.165Z,78.83
2022-10-11T21:56:15.705Z,79.35
2022-10-11T21:59:18.174Z,78.47
2022-10-11T22:02:20.707Z,79.13
2022-10-11T22:05:24.309Z,79.05
2022-10-11T22:08:27.638Z,79.55
2022-10-11T22:11:31.431Z,79.51
2022-10-11T22:14:34.623Z,79.16
2022-10-11T22:17:37.644Z,80.06
2022-10-11T22:20:40.157Z,78.69
2022-10-11T22:23:45.872Z,79.50
2022-10-11T22:26:48.377Z,79.99
2022-10-11T22:29:51.661Z,79.63
2022-10-11T22:32:54.157Z,79.43
2022-10-11T22:35:58.793Z,80.19
2022-10-11T22:39:07.695Z,80.16
2022-10-11T22:42:11.170Z,79.98
2022-10-11T22:45:13.644Z,79.57
2022-10-11T22:48:16.712Z,80.13
2022-10-11T22:51:19.856Z,79.63
2022-10-11T22:54:23.257Z,80.50
2022-10-11T22:57:25.797Z,79.98
2022-10-11T23:00:29.253Z,79.97
2022-10-11T23:03:31.726Z,80.02
2022-10-11T23:06:34.311Z,80.17
2022-10-11T23:09:37.685Z,80.58
2022-10-11T23:12:40.259Z,80.14
2022-10-11T23:15:42.808Z,80.10
2022-10-11T23:18:45.399Z,79.97
2022-10-11T23:21:48.850Z,79.95
2022-10-11T23:24:51.339Z,79.55
2022-10-11T23:27:53.815Z,79.67
2022-10-11T23:30:56.398Z,80.45
2022-10-11T23:33:59.749Z,80.81
2022-10-11T23:37:03.917Z,80.00
2022-10-11T23:40:07.222Z,81.15
2022-10-11T23:43:10.320Z,80.67
2022-10-11T23:46:12.826Z,81.73
2022-10-11T23:49:16.385Z,81.86
2022-10-11T23:52:19.757Z,81.97
2022-10-11T23:55:22.736Z,82.64
2022-10-11T23:58:25.312Z,82.26
